sensor_id;sensor_type;location;lat;lon;timestamp;pressure;altitude;pressure_sealevel;temperature;humidity
65227;BME280;51805;49.012;12.104;2023-07-13T00:01:31;97637.66;;;27.96;50.43
65227;BME280;51805;49.012;12.104;2023-07-13T00:03:57;97638.44;;;27.97;50.30
65227;BME280;51805;49.012;12.104;2023-07-13T00:06:23;97638.44;;;27.97;50.27
65227;BME280;51805;49.012;12.104;2023-07-13T00:08:48;97636.84;;;27.96;50.38
65227;BME280;51805;49.012;12.104;2023-07-13T00:11:14;97644.69;;;27.97;50.15
65227;BME280;51805;49.012;12.104;2023-07-13T00:13:39;97645.84;;;27.96;50.23
65227;BME280;51805;49.012;12.104;2023-07-13T00:16:05;97650.31;;;27.92;50.53
65227;BME280;51805;49.012;12.104;2023-07-13T00:18:31;97654.03;;;27.96;50.17
65227;BME280;51805;49.012;12.104;2023-07-13T00:20:56;97656.75;;;27.96;50.09
65227;BME280;51805;49.012;12.104;2023-07-13T00:23:22;97663.00;;;27.97;50.13
65227;BME280;51805;49.012;12.104;2023-07-13T00:25:47;97650.97;;;27.98;49.74
65227;BME280;51805;49.012;12.104;2023-07-13T00:28:12;97643.09;;;27.96;50.04
65227;BME280;51805;49.012;12.104;2023-07-13T00:30:38;97645.34;;;27.94;49.96
65227;BME280;51805;49.012;12.104;2023-07-13T00:33:03;97638.91;;;27.90;50.08
65227;BME280;51805;49.012;12.104;2023-07-13T00:35:31;97649.69;;;27.95;50.10
65227;BME280;51805;49.012;12.104;2023-07-13T00:37:56;97648.06;;;27.94;50.27
65227;BME280;51805;49.012;12.104;2023-07-13T00:40:21;97644.53;;;27.94;49.92
65227;BME280;51805;49.012;12.104;2023-07-13T00:42:46;97637.66;;;27.96;49.99
65227;BME280;51805;49.012;12.104;2023-07-13T00:47:38;97639.88;;;27.94;50.07
65227;BME280;51805;49.012;12.104;2023-07-13T00:50:05;97636.66;;;27.92;49.99
65227;BME280;51805;49.012;12.104;2023-07-13T00:52:32;97653.88;;;27.93;50.02
65227;BME280;51805;49.012;12.104;2023-07-13T00:54:57;97646.00;;;27.91;49.80
65227;BME280;51805;49.012;12.104;2023-07-13T00:57:23;97659.31;;;27.93;49.90
65227;BME280;51805;49.012;12.104;2023-07-13T00:59:53;97661.75;;;27.94;49.77
65227;BME280;51805;49.012;12.104;2023-07-13T01:02:19;97660.09;;;27.93;49.80
65227;BME280;51805;49.012;12.104;2023-07-13T01:04:45;97648.72;;;27.91;50.15
65227;BME280;51805;49.012;12.104;2023-07-13T01:07:11;97652.41;;;27.95;49.83
65227;BME280;51805;49.012;12.104;2023-07-13T01:09:37;97653.06;;;27.92;49.83
65227;BME280;51805;49.012;12.104;2023-07-13T01:12:02;97649.50;;;27.92;49.67
65227;BME280;51805;49.012;12.104;2023-07-13T01:14:28;97662.06;;;27.93;49.94
65227;BME280;51805;49.012;12.104;2023-07-13T01:16:54;97647.59;;;27.92;50.01
65227;BME280;51805;49.012;12.104;2023-07-13T01:19:32;97646.00;;;27.91;49.87
65227;BME280;51805;49.012;12.104;2023-07-13T01:21:58;97646.78;;;27.92;49.74
65227;BME280;51805;49.012;12.104;2023-07-13T01:24:23;97652.25;;;27.92;49.74
65227;BME280;51805;49.012;12.104;2023-07-13T01:26:49;97640.53;;;27.91;49.57
65227;BME280;51805;49.012;12.104;2023-07-13T01:29:14;97645.00;;;27.87;49.72
65227;BME280;51805;49.012;12.104;2023-07-13T01:31:39;97642.78;;;27.89;49.68
65227;BME280;51805;49.012;12.104;2023-07-13T01:34:05;97644.38;;;27.90;49.76
65227;BME280;51805;49.012;12.104;2023-07-13T01:36:30;97636.19;;;27.90;49.78
65227;BME280;51805;49.012;12.104;2023-07-13T01:38:55;97643.59;;;27.90;49.50
65227;BME280;51805;49.012;12.104;2023-07-13T01:41:20;97639.72;;;27.91;49.53
65227;BME280;51805;49.012;12.104;2023-07-13T01:43:46;97632.66;;;27.90;49.69
65227;BME280;51805;49.012;12.104;2023-07-13T01:46:11;97615.78;;;27.79;49.76
65227;BME280;51805;49.012;12.104;2023-07-13T01:48:36;97632.34;;;27.91;49.48
65227;BME280;51805;49.012;12.104;2023-07-13T01:51:02;97625.56;;;27.89;49.53
65227;BME280;51805;49.012;12.104;2023-07-13T01:53:27;97627.19;;;27.90;49.63
65227;BME280;51805;49.012;12.104;2023-07-13T01:55:52;97624.25;;;27.86;49.74
65227;BME280;51805;49.012;12.104;2023-07-13T01:58:17;97626.38;;;27.89;49.58
65227;BME280;51805;49.012;12.104;2023-07-13T02:00:43;97631.84;;;27.89;49.69
65227;BME280;51805;49.012;12.104;2023-07-13T02:03:08;97632.97;;;27.88;49.59
65227;BME280;51805;49.012;12.104;2023-07-13T02:05:33;97637.31;;;27.89;49.60
65227;BME280;51805;49.012;12.104;2023-07-13T02:07:59;97643.59;;;27.90;49.36
65227;BME280;51805;49.012;12.104;2023-07-13T02:10:24;97637.31;;;27.89;49.49
65227;BME280;51805;49.012;12.104;2023-07-13T02:12:50;97635.72;;;27.88;49.29
65227;BME280;51805;49.012;12.104;2023-07-13T02:15:15;97630.25;;;27.88;49.57
65227;BME280;51805;49.012;12.104;2023-07-13T02:17:41;97628.63;;;27.87;49.43
65227;BME280;51805;49.012;12.104;2023-07-13T02:20:06;97631.03;;;27.89;49.38
65227;BME280;51805;49.012;12.104;2023-07-13T02:22:32;97630.25;;;27.88;49.23
65227;BME280;51805;49.012;12.104;2023-07-13T02:24:57;97630.25;;;27.88;49.43
65227;BME280;51805;49.012;12.104;2023-07-13T02:27:23;97634.91;;;27.88;49.41
65227;BME280;51805;49.012;12.104;2023-07-13T02:29:48;97633.28;;;27.87;49.45
65227;BME280;51805;49.012;12.104;2023-07-13T02:32:13;97633.59;;;27.85;49.43
65227;BME280;51805;49.012;12.104;2023-07-13T02:34:40;97636.81;;;27.87;49.40
65227;BME280;51805;49.012;12.104;2023-07-13T02:37:06;97639.84;;;27.86;49.34
65227;BME280;51805;49.012;12.104;2023-07-13T02:39:31;97651.28;;;27.88;49.27
65227;BME280;51805;49.012;12.104;2023-07-13T02:41:56;97660.28;;;27.88;49.22
65227;BME280;51805;49.012;12.104;2023-07-13T02:44:21;97649.66;;;27.87;49.25
65227;BME280;51805;49.012;12.104;2023-07-13T02:46:47;97651.91;;;27.85;49.54
65227;BME280;51805;49.012;12.104;2023-07-13T02:49:12;97655.94;;;27.87;49.24
65227;BME280;51805;49.012;12.104;2023-07-13T02:51:37;97657.03;;;27.86;49.17
65227;BME280;51805;49.012;12.104;2023-07-13T02:54:03;97652.41;;;27.87;49.35
65227;BME280;51805;49.012;12.104;2023-07-13T02:56:30;97653.50;;;27.86;49.30
65227;BME280;51805;49.012;12.104;2023-07-13T02:58:56;97651.91;;;27.85;49.29
65227;BME280;51805;49.012;12.104;2023-07-13T03:01:22;97654.31;;;27.86;49.23
65227;BME280;51805;49.012;12.104;2023-07-13T03:03:51;97651.56;;;27.86;49.17
65227;BME280;51805;49.012;12.104;2023-07-13T03:06:17;97655.44;;;27.85;49.22
65227;BME280;51805;49.012;12.104;2023-07-13T03:08:43;97658.19;;;27.85;49.25
65227;BME280;51805;49.012;12.104;2023-07-13T03:11:12;97661.69;;;27.86;49.05
65227;BME280;51805;49.012;12.104;2023-07-13T03:13:38;97669.09;;;27.85;49.22
65227;BME280;51805;49.012;12.104;2023-07-13T03:16:05;97669.88;;;27.86;49.10
65227;BME280;51805;49.012;12.104;2023-07-13T03:18:30;97667.97;;;27.86;49.06
65227;BME280;51805;49.012;12.104;2023-07-13T03:20:56;97673.75;;;27.85;49.11
65227;BME280;51805;49.012;12.104;2023-07-13T03:23:22;97675.66;;;27.84;49.05
65227;BME280;51805;49.012;12.104;2023-07-13T03:25:48;97678.41;;;27.84;49.07
65227;BME280;51805;49.012;12.104;2023-07-13T03:28:14;97683.84;;;27.84;49.24
65227;BME280;51805;49.012;12.104;2023-07-13T03:30:39;97683.84;;;27.84;49.05
65227;BME280;51805;49.012;12.104;2023-07-13T03:33:05;97694.78;;;27.84;48.88
65227;BME280;51805;49.012;12.104;2023-07-13T03:35:30;97687.22;;;27.81;48.83
65227;BME280;51805;49.012;12.104;2023-07-13T03:37:55;97694.78;;;27.84;49.23
65227;BME280;51805;49.012;12.104;2023-07-13T03:40:21;97700.88;;;27.81;49.08
65227;BME280;51805;49.012;12.104;2023-07-13T03:42:46;97705.72;;;27.84;48.95
65227;BME280;51805;49.012;12.104;2023-07-13T03:45:11;97705.72;;;27.84;48.97
65227;BME280;51805;49.012;12.104;2023-07-13T03:47:37;97705.72;;;27.84;48.96
65227;BME280;51805;49.012;12.104;2023-07-13T03:50:02;97706.84;;;27.83;48.79
65227;BME280;51805;49.012;12.104;2023-07-13T03:52:27;97713.13;;;27.84;49.06
65227;BME280;51805;49.012;12.104;2023-07-13T03:54:53;97715.03;;;27.83;49.02
65227;BME280;51805;49.012;12.104;2023-07-13T03:57:18;97711.16;;;27.84;48.92
65227;BME280;51805;49.012;12.104;2023-07-13T03:59:44;97718.25;;;27.85;48.93
65227;BME280;51805;49.012;12.104;2023-07-13T04:02:09;97718.09;;;27.82;48.93
65227;BME280;51805;49.012;12.104;2023-07-13T04:04:34;97716.63;;;27.84;48.86
65227;BME280;51805;49.012;12.104;2023-07-13T04:07:00;97710.38;;;27.84;48.74
65227;BME280;51805;49.012;12.104;2023-07-13T04:09:25;97716.63;;;27.84;48.78
65227;BME280;51805;49.012;12.104;2023-07-13T04:11:51;97721.00;;;27.85;48.90
65227;BME280;51805;49.012;12.104;2023-07-13T04:14:16;97718.25;;;27.85;48.78
65227;BME280;51805;49.012;12.104;2023-07-13T04:16:42;97712.81;;;27.85;48.83
65227;BME280;51805;49.012;12.104;2023-07-13T04:19:09;97708.94;;;27.86;48.83
65227;BME280;51805;49.012;12.104;2023-07-13T04:21:34;97708.94;;;27.86;48.83
65227;BME280;51805;49.012;12.104;2023-07-13T04:24:00;97719.03;;;27.86;48.55
65227;BME280;51805;49.012;12.104;2023-07-13T04:26:25;97716.03;;;27.87;48.63
65227;BME280;51805;49.012;12.104;2023-07-13T04:28:51;97716.03;;;27.87;48.57
65227;BME280;51805;49.012;12.104;2023-07-13T04:31:17;97704.00;;;27.88;48.81
65227;BME280;51805;49.012;12.104;2023-07-13T04:33:42;97713.28;;;27.87;48.46
65227;BME280;51805;49.012;12.104;2023-07-13T04:36:09;97713.78;;;27.89;48.68
65227;BME280;51805;49.012;12.104;2023-07-13T04:38:34;97718.13;;;27.90;48.48
65227;BME280;51805;49.012;12.104;2023-07-13T04:41:01;97713.47;;;27.91;48.54
65227;BME280;51805;49.012;12.104;2023-07-13T04:43:28;97717.78;;;27.92;48.58
65227;BME280;51805;49.012;12.104;2023-07-13T04:45:53;97714.09;;;27.88;48.55
65227;BME280;51805;49.012;12.104;2023-07-13T04:48:19;97714.28;;;27.91;48.43
65227;BME280;51805;49.012;12.104;2023-07-13T04:50:46;97712.66;;;27.90;48.42
65227;BME280;51805;49.012;12.104;2023-07-13T04:53:11;97721.66;;;27.91;48.38
65227;BME280;51805;49.012;12.104;2023-07-13T04:55:37;97727.94;;;27.91;48.48
65227;BME280;51805;49.012;12.104;2023-07-13T04:58:03;97735.00;;;27.92;48.52
65227;BME280;51805;49.012;12.104;2023-07-13T05:00:29;97730.66;;;27.91;48.46
65227;BME280;51805;49.012;12.104;2023-07-13T05:02:56;97731.78;;;27.90;48.42
65227;BME280;51805;49.012;12.104;2023-07-13T05:05:21;97739.66;;;27.92;48.36
65227;BME280;51805;49.012;12.104;2023-07-13T05:07:47;97742.38;;;27.92;48.52
65227;BME280;51805;49.012;12.104;2023-07-13T05:10:12;97755.25;;;27.91;48.38
65227;BME280;51805;49.012;12.104;2023-07-13T05:12:37;97745.44;;;27.90;48.49
65227;BME280;51805;49.012;12.104;2023-07-13T05:15:03;97743.19;;;27.92;48.34
65227;BME280;51805;49.012;12.104;2023-07-13T05:17:28;97746.25;;;27.91;48.38
65227;BME280;51805;49.012;12.104;2023-07-13T05:19:54;97752.97;;;27.93;48.40
65227;BME280;51805;49.012;12.104;2023-07-13T05:22:19;97748.16;;;27.90;48.44
65227;BME280;51805;49.012;12.104;2023-07-13T05:24:44;97749.28;;;27.89;48.14
65227;BME280;51805;49.012;12.104;2023-07-13T05:27:10;97746.41;;;27.94;48.08
65227;BME280;51805;49.012;12.104;2023-07-13T05:29:35;97753.47;;;27.95;47.91
65227;BME280;51805;49.012;12.104;2023-07-13T05:32:00;97755.75;;;28.02;48.06
65227;BME280;51805;49.012;12.104;2023-07-13T05:34:26;97754.16;;;28.01;47.68
65227;BME280;51805;49.012;12.104;2023-07-13T05:36:51;97756.56;;;28.02;47.92
65227;BME280;51805;49.012;12.104;2023-07-13T05:39:16;97763.16;;;28.10;47.85
65227;BME280;51805;49.012;12.104;2023-07-13T05:41:42;97765.25;;;28.13;47.85
65227;BME280;51805;49.012;12.104;2023-07-13T05:44:07;97783.72;;;28.16;47.59
65227;BME280;51805;49.012;12.104;2023-07-13T05:46:32;97761.19;;;28.10;47.67
65227;BME280;51805;49.012;12.104;2023-07-13T05:48:57;97775.53;;;28.16;47.56
65227;BME280;51805;49.012;12.104;2023-07-13T05:51:23;97762.00;;;28.11;47.61
65227;BME280;51805;49.012;12.104;2023-07-13T05:53:48;97783.91;;;28.19;47.75
65227;BME280;51805;49.012;12.104;2023-07-13T05:56:13;97773.28;;;28.18;47.46
65227;BME280;51805;49.012;12.104;2023-07-13T05:58:39;97768.16;;;28.16;47.62
65227;BME280;51805;49.012;12.104;2023-07-13T06:01:06;97780.53;;;28.22;47.73
65227;BME280;51805;49.012;12.104;2023-07-13T06:03:32;97781.63;;;28.21;47.52
65227;BME280;51805;49.012;12.104;2023-07-13T06:05:57;97767.66;;;28.14;47.53
65227;BME280;51805;49.012;12.104;2023-07-13T06:08:23;97757.50;;;28.06;47.54
65227;BME280;51805;49.012;12.104;2023-07-13T06:10:48;97777.75;;;28.14;47.60
65227;BME280;51805;49.012;12.104;2023-07-13T06:13:13;97781.31;;;28.14;47.50
65227;BME280;51805;49.012;12.104;2023-07-13T06:15:38;97780.34;;;28.19;47.67
65227;BME280;51805;49.012;12.104;2023-07-13T06:18:04;97793.53;;;28.25;47.54
65227;BME280;51805;49.012;12.104;2023-07-13T06:20:29;97787.09;;;28.21;47.42
65227;BME280;51805;49.012;12.104;2023-07-13T06:22:55;97787.13;;;28.30;47.05
65227;BME280;51805;49.012;12.104;2023-07-13T06:25:20;97781.78;;;28.25;47.26
65227;BME280;51805;49.012;12.104;2023-07-13T06:27:45;97763.94;;;28.10;47.15
65227;BME280;51805;49.012;12.104;2023-07-13T06:30:11;97784.53;;;28.33;47.11
65227;BME280;51805;49.012;12.104;2023-07-13T06:32:37;97794.34;;;28.34;47.29
65227;BME280;51805;49.012;12.104;2023-07-13T06:35:02;97796.75;;;28.27;47.34
65227;BME280;51805;49.012;12.104;2023-07-13T06:37:28;97786.44;;;28.24;47.20
65227;BME280;51805;49.012;12.104;2023-07-13T06:39:53;97797.22;;;28.29;47.37
65227;BME280;51805;49.012;12.104;2023-07-13T06:42:18;97814.25;;;28.35;47.08
65227;BME280;51805;49.012;12.104;2023-07-13T06:44:43;97795.31;;;28.30;47.15
65227;BME280;51805;49.012;12.104;2023-07-13T06:47:09;97799.50;;;28.36;47.11
65227;BME280;51805;49.012;12.104;2023-07-13T06:49:34;97787.44;;;28.28;47.09
65227;BME280;51805;49.012;12.104;2023-07-13T06:51:59;97803.66;;;28.42;47.08
65227;BME280;51805;49.012;12.104;2023-07-13T06:54:24;97796.94;;;28.39;47.00
65227;BME280;51805;49.012;12.104;2023-07-13T06:56:50;97799.03;;;28.42;46.94
65227;BME280;51805;49.012;12.104;2023-07-13T06:59:15;97799.03;;;28.42;47.10
65227;BME280;51805;49.012;12.104;2023-07-13T07:01:40;97800.81;;;28.47;49.38
65227;BME280;51805;49.012;12.104;2023-07-13T07:04:05;97792.84;;;27.46;46.31
65227;BME280;51805;49.012;12.104;2023-07-13T07:06:31;97815.25;;;26.25;44.33
65227;BME280;51805;49.012;12.104;2023-07-13T07:08:56;97801.72;;;23.86;46.36
65227;BME280;51805;49.012;12.104;2023-07-13T07:11:23;97806.28;;;23.91;48.34
65227;BME280;51805;49.012;12.104;2023-07-13T07:13:50;97808.19;;;23.20;48.32
65227;BME280;51805;49.012;12.104;2023-07-13T07:16:16;97805.56;;;23.62;48.10
65227;BME280;51805;49.012;12.104;2023-07-13T07:18:41;97816.13;;;23.63;46.98
65227;BME280;51805;49.012;12.104;2023-07-13T07:21:07;97810.81;;;23.30;47.37
65227;BME280;51805;49.012;12.104;2023-07-13T07:23:32;97818.50;;;22.89;47.36
65227;BME280;51805;49.012;12.104;2023-07-13T07:25:58;97821.72;;;23.25;47.17
65227;BME280;51805;49.012;12.104;2023-07-13T07:28:23;97808.75;;;23.17;47.47
65227;BME280;51805;49.012;12.104;2023-07-13T07:30:49;97825.09;;;23.12;47.47
65227;BME280;51805;49.012;12.104;2023-07-13T07:33:17;97826.66;;;23.18;47.46
65227;BME280;51805;49.012;12.104;2023-07-13T07:35:42;97832.97;;;23.84;46.76
65227;BME280;51805;49.012;12.104;2023-07-13T07:38:08;97845.53;;;23.56;46.40
65227;BME280;51805;49.012;12.104;2023-07-13T07:40:37;97838.38;;;23.65;46.47
65227;BME280;51805;49.012;12.104;2023-07-13T07:43:02;97833.31;;;23.54;46.14
65227;BME280;51805;49.012;12.104;2023-07-13T07:45:27;97847.47;;;23.51;45.16
65227;BME280;51805;49.012;12.104;2023-07-13T07:47:53;97824.63;;;22.99;46.20
65227;BME280;51805;49.012;12.104;2023-07-13T07:50:18;97821.88;;;23.04;45.82
65227;BME280;51805;49.012;12.104;2023-07-13T07:52:43;97836.25;;;23.34;45.86
65227;BME280;51805;49.012;12.104;2023-07-13T07:55:08;97844.41;;;23.34;44.56
65227;BME280;51805;49.012;12.104;2023-07-13T07:57:34;97846.66;;;23.27;45.19
65227;BME280;51805;49.012;12.104;2023-07-13T07:59:59;97847.69;;;23.31;45.70
65227;BME280;51805;49.012;12.104;2023-07-13T08:02:25;97845.66;;;23.13;45.85
65227;BME280;51805;49.012;12.104;2023-07-13T08:04:50;97850.09;;;23.32;45.72
65227;BME280;51805;49.012;12.104;2023-07-13T08:07:16;97859.69;;;23.25;45.19
65227;BME280;51805;49.012;12.104;2023-07-13T08:09:41;97852.09;;;23.50;45.02
65227;BME280;51805;49.012;12.104;2023-07-13T08:12:07;97846.25;;;23.38;45.28
65227;BME280;51805;49.012;12.104;2023-07-13T08:14:32;97858.66;;;23.68;44.62
65227;BME280;51805;49.012;12.104;2023-07-13T08:16:58;97857.88;;;23.44;44.24
65227;BME280;51805;49.012;12.104;2023-07-13T08:19:23;97851.25;;;23.55;44.86
65227;BME280;51805;49.012;12.104;2023-07-13T08:21:48;97868.69;;;23.15;42.84
65227;BME280;51805;49.012;12.104;2023-07-13T08:24:14;97860.16;;;23.32;42.04
65227;BME280;51805;49.012;12.104;2023-07-13T08:26:39;97876.22;;;23.75;41.36
65227;BME280;51805;49.012;12.104;2023-07-13T08:29:04;97868.25;;;23.84;42.21
65227;BME280;51805;49.012;12.104;2023-07-13T08:31:30;97861.09;;;23.93;42.28
65227;BME280;51805;49.012;12.104;2023-07-13T08:33:55;97879.47;;;24.01;42.26
65227;BME280;51805;49.012;12.104;2023-07-13T08:36:20;97873.47;;;24.04;41.28
65227;BME280;51805;49.012;12.104;2023-07-13T08:38:46;97874.53;;;23.56;41.38
65227;BME280;51805;49.012;12.104;2023-07-13T08:41:14;97893.91;;;23.73;40.68
65227;BME280;51805;49.012;12.104;2023-07-13T08:43:41;97870.44;;;23.35;40.90
65227;BME280;51805;49.012;12.104;2023-07-13T08:48:45;97886.91;;;23.90;40.11
65227;BME280;51805;49.012;12.104;2023-07-13T08:51:33;97902.72;;;23.31;40.92
65227;BME280;51805;49.012;12.104;2023-07-13T08:54:10;97892.97;;;23.59;40.88
65227;BME280;51805;49.012;12.104;2023-07-13T08:56:38;97893.44;;;23.66;40.71
65227;BME280;51805;49.012;12.104;2023-07-13T08:59:11;97892.44;;;23.80;39.95
65227;BME280;51805;49.012;12.104;2023-07-13T09:01:58;97897.56;;;23.58;40.37
65227;BME280;51805;49.012;12.104;2023-07-13T09:04:29;97909.41;;;24.38;39.16
65227;BME280;51805;49.012;12.104;2023-07-13T09:12:30;97894.94;;;24.24;37.01
65227;BME280;51805;49.012;12.104;2023-07-13T09:15:01;97908.88;;;24.36;38.07
65227;BME280;51805;49.012;12.104;2023-07-13T09:17:35;97898.94;;;24.08;39.07
65227;BME280;51805;49.012;12.104;2023-07-13T09:22:56;97895.94;;;24.70;38.56
65227;BME280;51805;49.012;12.104;2023-07-13T09:25:31;97905.16;;;24.50;38.01
65227;BME280;51805;49.012;12.104;2023-07-13T09:28:02;97904.56;;;24.35;39.27
65227;BME280;51805;49.012;12.104;2023-07-13T09:30:36;97912.28;;;24.04;39.09
65227;BME280;51805;49.012;12.104;2023-07-13T09:33:03;97907.13;;;24.03;39.08
65227;BME280;51805;49.012;12.104;2023-07-13T09:35:29;97922.50;;;24.12;39.36
65227;BME280;51805;49.012;12.104;2023-07-13T09:38:01;97899.50;;;24.47;39.13
65227;BME280;51805;49.012;12.104;2023-07-13T09:40:39;97903.44;;;24.36;39.87
65227;BME280;51805;49.012;12.104;2023-07-13T09:43:08;97886.88;;;24.56;39.45
65227;BME280;51805;49.012;12.104;2023-07-13T09:45:36;97897.59;;;24.29;39.06
65227;BME280;51805;49.012;12.104;2023-07-13T09:48:12;97900.09;;;24.44;38.43
65227;BME280;51805;49.012;12.104;2023-07-13T09:50:38;97890.41;;;24.56;37.67
65227;BME280;51805;49.012;12.104;2023-07-13T09:53:03;97888.19;;;24.77;38.15
65227;BME280;51805;49.012;12.104;2023-07-13T09:55:34;97908.41;;;24.71;36.21
65227;BME280;51805;49.012;12.104;2023-07-13T09:58:13;97915.97;;;24.74;33.37
65227;BME280;51805;49.012;12.104;2023-07-13T10:00:39;97911.09;;;24.52;34.08
65227;BME280;51805;49.012;12.104;2023-07-13T10:03:18;97892.06;;;24.52;34.52
65227;BME280;51805;49.012;12.104;2023-07-13T10:05:45;97900.53;;;24.51;34.56
65227;BME280;51805;49.012;12.104;2023-07-13T10:10:45;97903.66;;;25.14;34.48
65227;BME280;51805;49.012;12.104;2023-07-13T10:13:25;97889.81;;;24.41;34.25
65227;BME280;51805;49.012;12.104;2023-07-13T10:15:52;97906.81;;;24.70;34.84
65227;BME280;51805;49.012;12.104;2023-07-13T10:18:17;97900.19;;;24.76;34.63
65227;BME280;51805;49.012;12.104;2023-07-13T10:20:44;97904.38;;;24.87;35.21
65227;BME280;51805;49.012;12.104;2023-07-13T10:23:20;97896.91;;;25.11;34.39
65227;BME280;51805;49.012;12.104;2023-07-13T10:25:47;97892.53;;;25.29;33.44
65227;BME280;51805;49.012;12.104;2023-07-13T10:28:31;97897.31;;;24.86;33.80
65227;BME280;51805;49.012;12.104;2023-07-13T10:30:58;97902.59;;;24.96;33.72
65227;BME280;51805;49.012;12.104;2023-07-13T10:33:24;97894.38;;;24.83;33.52
65227;BME280;51805;49.012;12.104;2023-07-13T10:35:51;97902.81;;;25.00;33.72
65227;BME280;51805;49.012;12.104;2023-07-13T10:38:23;97900.88;;;25.00;33.75
65227;BME280;51805;49.012;12.104;2023-07-13T10:41:07;97905.53;;;25.32;33.67
65227;BME280;51805;49.012;12.104;2023-07-13T10:43:39;97900.38;;;25.30;33.94
65227;BME280;51805;49.012;12.104;2023-07-13T10:46:10;97906.47;;;25.41;33.52
65227;BME280;51805;49.012;12.104;2023-07-13T10:48:36;97906.09;;;25.15;33.24
65227;BME280;51805;49.012;12.104;2023-07-13T10:51:05;97911.22;;;25.35;33.63
65227;BME280;51805;49.012;12.104;2023-07-13T10:53:33;97904.44;;;25.33;33.28
65227;BME280;51805;49.012;12.104;2023-07-13T10:58:32;97917.28;;;24.95;33.33
65227;BME280;51805;49.012;12.104;2023-07-13T11:01:14;97902.75;;;25.37;33.28
65227;BME280;51805;49.012;12.104;2023-07-13T11:06:12;97897.09;;;25.33;33.13
65227;BME280;51805;49.012;12.104;2023-07-13T11:19:23;97910.91;;;24.86;31.37
65227;BME280;51805;49.012;12.104;2023-07-13T11:22:10;97915.06;;;24.97;31.08
65227;BME280;51805;49.012;12.104;2023-07-13T11:27:34;97900.91;;;25.32;30.71
65227;BME280;51805;49.012;12.104;2023-07-13T11:30:31;97898.09;;;25.37;30.72
65227;BME280;51805;49.012;12.104;2023-07-13T11:35:36;97885.63;;;25.50;30.51
65227;BME280;51805;49.012;12.104;2023-07-13T11:38:02;97909.03;;;25.51;30.37
65227;BME280;51805;49.012;12.104;2023-07-13T11:40:33;97905.63;;;25.72;30.17
65227;BME280;51805;49.012;12.104;2023-07-13T11:43:00;97888.88;;;25.52;30.03
65227;BME280;51805;49.012;12.104;2023-07-13T11:45:25;97873.56;;;25.69;30.12
65227;BME280;51805;49.012;12.104;2023-07-13T11:47:50;97892.31;;;25.98;30.69
65227;BME280;51805;49.012;12.104;2023-07-13T11:50:21;97902.03;;;26.04;29.91
65227;BME280;51805;49.012;12.104;2023-07-13T11:52:48;97905.75;;;26.08;30.14
65227;BME280;51805;49.012;12.104;2023-07-13T11:55:17;97886.50;;;25.91;29.49
65227;BME280;51805;49.012;12.104;2023-07-13T11:57:47;97889.72;;;26.06;29.55
65227;BME280;51805;49.012;12.104;2023-07-13T12:00:17;97900.19;;;26.13;29.37
65227;BME280;51805;49.012;12.104;2023-07-13T12:02:46;97890.72;;;25.97;29.10
65227;BME280;51805;49.012;12.104;2023-07-13T12:05:14;97889.09;;;25.82;28.91
65227;BME280;51805;49.012;12.104;2023-07-13T12:07:40;97880.84;;;25.87;29.62
65227;BME280;51805;49.012;12.104;2023-07-13T12:12:34;97888.09;;;26.33;28.96
65227;BME280;51805;49.012;12.104;2023-07-13T12:14:59;97876.50;;;26.13;29.11
65227;BME280;51805;49.012;12.104;2023-07-13T12:17:25;97887.06;;;26.29;29.13
65227;BME280;51805;49.012;12.104;2023-07-13T12:19:52;97887.41;;;26.13;28.78
65227;BME280;51805;49.012;12.104;2023-07-13T12:22:19;97879.59;;;26.21;28.72
65227;BME280;51805;49.012;12.104;2023-07-13T12:24:45;97867.22;;;26.14;28.21
65227;BME280;51805;49.012;12.104;2023-07-13T12:27:29;97885.22;;;26.38;28.37
65227;BME280;51805;49.012;12.104;2023-07-13T12:30:00;97882.66;;;26.55;28.80
65227;BME280;51805;49.012;12.104;2023-07-13T12:32:26;97864.31;;;26.47;28.52
65227;BME280;51805;49.012;12.104;2023-07-13T12:34:56;97865.44;;;26.46;28.62
65227;BME280;51805;49.012;12.104;2023-07-13T12:37:21;97861.56;;;26.25;28.68
65227;BME280;51805;49.012;12.104;2023-07-13T12:39:48;97875.56;;;26.32;29.35
65227;BME280;51805;49.012;12.104;2023-07-13T12:42:19;97877.31;;;26.50;28.82
65227;BME280;51805;49.012;12.104;2023-07-13T12:44:45;97861.38;;;26.57;29.33
65227;BME280;51805;49.012;12.104;2023-07-13T12:47:13;97874.63;;;26.63;27.36
65227;BME280;51805;49.012;12.104;2023-07-13T12:49:47;97867.53;;;26.49;27.46
65227;BME280;51805;49.012;12.104;2023-07-13T12:52:16;97862.81;;;26.54;29.00
65227;BME280;51805;49.012;12.104;2023-07-13T12:54:42;97865.56;;;26.76;28.32
65227;BME280;51805;49.012;12.104;2023-07-13T12:57:13;97861.59;;;26.47;27.19
65227;BME280;51805;49.012;12.104;2023-07-13T12:59:41;97835.16;;;26.47;27.18
65227;BME280;51805;49.012;12.104;2023-07-13T13:02:33;97841.47;;;26.56;27.52
65227;BME280;51805;49.012;12.104;2023-07-13T13:04:59;97855.47;;;26.77;26.90
65227;BME280;51805;49.012;12.104;2023-07-13T13:07:25;97837.69;;;26.79;27.58
65227;BME280;51805;49.012;12.104;2023-07-13T13:09:51;97836.44;;;26.85;27.21
65227;BME280;51805;49.012;12.104;2023-07-13T13:12:17;97833.78;;;26.72;26.46
65227;BME280;51805;49.012;12.104;2023-07-13T13:14:42;97818.03;;;26.91;27.48
65227;BME280;51805;49.012;12.104;2023-07-13T13:17:19;97828.22;;;26.99;26.44
65227;BME280;51805;49.012;12.104;2023-07-13T13:19:45;97840.75;;;27.08;26.57
65227;BME280;51805;49.012;12.104;2023-07-13T13:22:10;97829.44;;;26.93;25.55
65227;BME280;51805;49.012;12.104;2023-07-13T13:24:36;97837.56;;;26.84;25.65
65227;BME280;51805;49.012;12.104;2023-07-13T13:27:01;97827.19;;;26.95;25.52
65227;BME280;51805;49.012;12.104;2023-07-13T13:29:26;97830.97;;;26.85;26.22